« Back
NWS Peachtree City, Ga » Text Product » ATL Terminal Aerodrome Forecast


Printer-friendly Version
Current Version              Previous Versions:   1  2  3  4  5  6  7  8  9  

Terminal Aerodrome Forecast

961
FTUS42 KFFC 261120
TAFATL
TAF
KATL 261120Z 2612/2718 24004KT P6SM FEW070 SCT100
     FM261600 22006KT P6SM SCT045
      TEMPO 2619/2623 4SM -TSRA BKN035CB
     FM270200 21003KT P6SM FEW050 SCT100
     FM271400 23005KT P6SM SCT040=

USA.gov is the U.S. government's official web portal to all federal, state and local government web resources and services.